createdAt,value
2023-03-03T00:00:48.120Z,19.17
2023-03-03T00:03:17.024Z,17.87
2023-03-03T00:05:44.269Z,16.43
2023-03-03T00:08:11.984Z,18.10
2023-03-03T00:10:39.445Z,17.53
2023-03-03T00:13:14.396Z,16.33
2023-03-03T00:15:41.711Z,17.33
2023-03-03T00:18:19.769Z,17.33
2023-03-03T00:20:57.418Z,17.73
2023-03-03T00:23:30.894Z,16.33
2023-03-03T00:25:59.524Z,16.53
2023-03-03T00:28:29.913Z,17.60
2023-03-03T00:30:58.903Z,18.33
2023-03-03T00:33:42.707Z,18.93
2023-03-03T00:36:21.308Z,17.00
2023-03-03T00:38:49.286Z,18.73
2023-03-03T00:41:21.894Z,18.60
2023-03-03T00:43:49.152Z,17.37
2023-03-03T00:46:19.447Z,16.80
2023-03-03T00:48:47.316Z,21.23
2023-03-03T00:51:23.808Z,20.93
2023-03-03T00:53:51.596Z,18.03
2023-03-03T00:56:18.828Z,16.97
2023-03-03T00:58:49.017Z,17.53
2023-03-03T01:01:16.976Z,17.20
2023-03-03T01:03:44.592Z,18.50
2023-03-03T01:06:15.910Z,19.00
2023-03-03T01:08:43.276Z,16.10
2023-03-03T01:11:12.716Z,16.10
2023-03-03T01:13:41.581Z,15.90
2023-03-03T01:16:08.879Z,17.17
2023-03-03T01:18:36.342Z,15.80
2023-03-03T01:21:03.615Z,16.23
2023-03-03T01:23:30.885Z,16.07
2023-03-03T01:25:58.230Z,16.10
2023-03-03T01:28:25.602Z,17.63
2023-03-03T01:30:53.100Z,16.10
2023-03-03T01:33:20.466Z,17.17
2023-03-03T01:35:48.622Z,16.07
2023-03-03T01:38:16.779Z,16.97
2023-03-03T01:40:44.276Z,16.90
2023-03-03T01:43:15.993Z,17.20
2023-03-03T01:46:03.152Z,16.77
2023-03-03T01:48:48.502Z,18.67
2023-03-03T01:51:15.690Z,16.23
2023-03-03T01:53:44.414Z,16.47
2023-03-03T01:56:11.753Z,17.30
2023-03-03T01:59:02.385Z,16.47
2023-03-03T02:01:30.017Z,16.80
2023-03-03T02:03:57.630Z,16.13
2023-03-03T02:06:28.302Z,17.07
2023-03-03T02:09:00.546Z,16.90
2023-03-03T02:11:30.575Z,18.77
2023-03-03T02:13:57.819Z,18.27
2023-03-03T02:16:25.748Z,16.63
2023-03-03T02:18:53.001Z,18.23
2023-03-03T02:21:21.347Z,17.13
2023-03-03T02:24:03.639Z,17.37
2023-03-03T02:26:32.289Z,16.67
2023-03-03T02:28:59.483Z,16.60
2023-03-03T02:31:28.430Z,17.10
2023-03-03T02:33:56.004Z,15.40
2023-03-03T02:36:33.878Z,15.73
2023-03-03T02:39:20.011Z,14.00
2023-03-03T02:42:02.870Z,13.50
2023-03-03T02:44:31.351Z,12.63
2023-03-03T02:46:59.088Z,12.37
2023-03-03T02:49:27.586Z,13.37
2023-03-03T02:51:55.723Z,10.90
2023-03-03T02:54:24.715Z,11.87
2023-03-03T02:56:52.024Z,12.13
2023-03-03T02:59:19.561Z,13.00
2023-03-03T03:01:47.763Z,11.33
2023-03-03T03:04:16.112Z,12.40
2023-03-03T03:06:44.053Z,11.60
2023-03-03T03:09:11.694Z,13.37
2023-03-03T03:11:39.408Z,12.43
2023-03-03T03:14:07.715Z,11.40
2023-03-03T03:16:35.374Z,12.97
2023-03-03T03:19:03.027Z,14.27
2023-03-03T03:21:30.648Z,12.97
2023-03-03T03:23:57.910Z,13.20
2023-03-03T03:26:25.255Z,13.27
2023-03-03T03:28:52.590Z,12.63
2023-03-03T03:31:20.498Z,14.63
2023-03-03T03:33:47.766Z,13.23
2023-03-03T03:36:14.949Z,12.00
2023-03-03T03:38:42.316Z,13.63
2023-03-03T03:41:09.572Z,14.33
2023-03-03T03:43:36.903Z,13.60
2023-03-03T03:46:04.317Z,13.57
2023-03-03T03:48:31.814Z,13.67
2023-03-03T03:50:59.079Z,13.53
2023-03-03T03:53:26.303Z,12.27
2023-03-03T03:55:53.835Z,13.83
2023-03-03T03:58:21.210Z,13.13
2023-03-03T04:00:48.601Z,13.07
2023-03-03T04:03:16.265Z,14.37
2023-03-03T04:05:44.294Z,14.37
2023-03-03T04:08:11.601Z,14.73
2023-03-03T04:10:39.320Z,13.57
2023-03-03T04:13:06.579Z,11.43
2023-03-03T04:15:33.941Z,12.30
2023-03-03T04:18:01.295Z,11.03
2023-03-03T04:20:28.509Z,12.13
2023-03-03T04:22:57.230Z,10.47
2023-03-03T04:25:24.538Z,10.13
2023-03-03T04:27:52.892Z,11.20
2023-03-03T04:30:20.189Z,10.23
2023-03-03T04:32:47.831Z,9.87
2023-03-03T04:35:15.029Z,9.67
2023-03-03T04:37:42.279Z,9.93
2023-03-03T04:40:09.812Z,9.90
2023-03-03T04:42:37.459Z,11.00
2023-03-03T04:45:05.514Z,9.17
2023-03-03T04:47:33.371Z,9.67
2023-03-03T04:50:00.956Z,9.40
2023-03-03T04:52:28.309Z,9.67
2023-03-03T04:54:56.016Z,10.47
2023-03-03T04:57:23.287Z,9.37
2023-03-03T04:59:51.582Z,11.00
2023-03-03T05:02:18.852Z,10.67
2023-03-03T05:04:46.237Z,10.60
2023-03-03T05:07:13.791Z,10.90
2023-03-03T05:09:41.195Z,10.53
2023-03-03T05:12:08.547Z,10.93
2023-03-03T05:14:35.964Z,10.63
2023-03-03T05:17:04.648Z,9.87
2023-03-03T05:19:31.928Z,8.97
2023-03-03T05:21:59.202Z,9.83
2023-03-03T05:24:26.409Z,8.60
2023-03-03T05:26:53.857Z,8.63
2023-03-03T05:29:21.080Z,9.37
2023-03-03T05:31:48.664Z,8.87
2023-03-03T05:34:15.887Z,9.30
2023-03-03T05:36:43.204Z,9.90
2023-03-03T05:39:10.403Z,9.37
2023-03-03T05:41:37.762Z,9.50
2023-03-03T05:44:05.606Z,9.53
2023-03-03T05:46:32.852Z,8.77
2023-03-03T05:49:00.098Z,9.60
2023-03-03T05:51:27.483Z,9.17
2023-03-03T05:53:56.441Z,9.13
2023-03-03T05:56:23.826Z,8.53
2023-03-03T05:58:51.285Z,8.47
2023-03-03T06:01:18.610Z,7.93
2023-03-03T06:03:45.854Z,9.27
2023-03-03T06:06:14.220Z,9.03
2023-03-03T06:08:45.016Z,8.67
2023-03-03T06:11:13.232Z,8.57
2023-03-03T06:13:42.820Z,9.13
2023-03-03T06:16:10.037Z,8.60
2023-03-03T06:18:37.630Z,9.87
2023-03-03T06:21:05.154Z,9.40
2023-03-03T06:23:32.384Z,8.93
2023-03-03T06:25:59.616Z,9.73
2023-03-03T06:28:27.344Z,9.00
2023-03-03T06:30:55.186Z,8.30
2023-03-03T06:33:22.967Z,9.90
2023-03-03T06:35:50.998Z,9.50
2023-03-03T06:38:18.304Z,9.53
2023-03-03T06:40:46.438Z,9.10
2023-03-03T06:43:13.857Z,7.87
2023-03-03T06:45:41.611Z,7.83
2023-03-03T06:48:08.871Z,8.37
2023-03-03T06:50:36.192Z,7.30
2023-03-03T06:53:11.726Z,8.63
2023-03-03T06:55:39.368Z,7.67
2023-03-03T06:58:12.783Z,7.97
2023-03-03T07:00:41.636Z,8.43
2023-03-03T07:03:13.147Z,8.53
2023-03-03T07:05:40.359Z,8.70
2023-03-03T07:08:13.679Z,13.23
2023-03-03T07:10:40.974Z,12.13
2023-03-03T07:13:18.945Z,13.30
2023-03-03T07:15:46.192Z,9.43
2023-03-03T07:18:26.574Z,9.23
2023-03-03T07:20:53.788Z,11.60
2023-03-03T07:23:32.697Z,10.40
2023-03-03T07:25:59.974Z,10.37
2023-03-03T07:28:29.246Z,9.93
2023-03-03T07:30:58.176Z,11.00
2023-03-03T07:33:25.702Z,10.03
2023-03-03T07:35:54.485Z,13.17
2023-03-03T07:38:32.444Z,11.13
2023-03-03T07:41:01.255Z,11.43
2023-03-03T07:43:36.723Z,11.03
2023-03-03T07:46:25.899Z,10.87
2023-03-03T07:48:53.491Z,11.00
2023-03-03T07:51:31.859Z,11.57
2023-03-03T07:54:15.293Z,10.90
2023-03-03T07:56:42.579Z,12.33
2023-03-03T07:59:22.863Z,12.20
2023-03-03T08:01:52.722Z,10.37
2023-03-03T08:04:23.283Z,10.73
2023-03-03T08:06:54.959Z,12.03
2023-03-03T08:09:28.007Z,11.77
2023-03-03T08:12:07.382Z,11.13
2023-03-03T08:14:38.857Z,12.63
2023-03-03T08:17:21.523Z,12.73
2023-03-03T08:19:49.088Z,12.87
2023-03-03T08:22:18.417Z,13.47
2023-03-03T08:24:45.819Z,13.30
2023-03-03T08:27:13.112Z,13.07
2023-03-03T08:29:40.431Z,12.37
2023-03-03T08:32:08.033Z,12.27
2023-03-03T08:34:35.325Z,11.33
2023-03-03T08:37:02.652Z,11.43
2023-03-03T08:39:29.932Z,13.57
2023-03-03T08:41:57.122Z,13.63
2023-03-03T08:44:24.510Z,12.53
2023-03-03T08:46:51.770Z,13.40
2023-03-03T08:49:18.985Z,13.80
2023-03-03T08:51:46.202Z,11.80
2023-03-03T08:54:13.589Z,12.57
2023-03-03T08:56:40.882Z,13.00
2023-03-03T08:59:08.289Z,13.33
2023-03-03T09:01:35.791Z,13.20
2023-03-03T09:04:02.963Z,14.67
2023-03-03T09:06:30.543Z,12.33
2023-03-03T09:08:57.813Z,13.63
2023-03-03T09:11:27.416Z,15.93
2023-03-03T09:14:03.732Z,15.27
2023-03-03T09:16:35.796Z,14.63
2023-03-03T09:19:16.371Z,13.53
2023-03-03T09:21:43.608Z,13.27
2023-03-03T09:24:19.925Z,14.47
2023-03-03T09:26:47.719Z,13.43
2023-03-03T09:29:16.222Z,13.27
2023-03-03T09:31:47.020Z,12.87
2023-03-03T09:34:27.813Z,13.20
2023-03-03T09:36:55.832Z,13.97
2023-03-03T09:39:25.247Z,12.27
2023-03-03T09:42:07.546Z,13.77
2023-03-03T09:44:37.805Z,13.60
2023-03-03T09:47:05.176Z,15.33
2023-03-03T09:49:33.552Z,14.53
2023-03-03T09:52:05.695Z,16.53
2023-03-03T09:54:38.948Z,14.57
2023-03-03T09:57:11.670Z,13.97
2023-03-03T09:59:38.873Z,14.87
2023-03-03T10:02:29.514Z,12.27
2023-03-03T10:05:14.607Z,13.47
2023-03-03T10:08:00.524Z,14.93
2023-03-03T10:10:46.383Z,14.87
2023-03-03T10:13:22.636Z,14.77
2023-03-03T10:16:08.284Z,14.53
2023-03-03T10:18:45.858Z,14.90
2023-03-03T10:21:37.155Z,13.47
2023-03-03T10:24:20.598Z,15.00
2023-03-03T10:27:14.295Z,15.60
2023-03-03T10:29:56.864Z,15.87
2023-03-03T10:32:27.294Z,15.60
2023-03-03T10:35:03.708Z,16.33
2023-03-03T10:37:56.979Z,15.60
2023-03-03T10:40:32.893Z,17.47
2023-03-03T10:43:31.117Z,15.80
2023-03-03T10:46:17.920Z,15.20
2023-03-03T10:48:48.025Z,14.10
2023-03-03T10:51:30.711Z,13.70
2023-03-03T10:54:10.298Z,14.30
2023-03-03T10:56:56.058Z,13.13
2023-03-03T10:59:23.373Z,14.63
2023-03-03T11:01:54.345Z,13.67
2023-03-03T11:04:40.277Z,13.87
2023-03-03T11:07:07.661Z,13.57
2023-03-03T11:09:47.347Z,13.37
2023-03-03T11:12:23.825Z,12.97
2023-03-03T11:15:06.238Z,13.70
2023-03-03T11:17:52.179Z,14.27
2023-03-03T11:20:28.571Z,13.63
2023-03-03T11:22:55.717Z,12.87
2023-03-03T11:25:23.262Z,12.57
2023-03-03T11:27:53.332Z,13.20
2023-03-03T11:30:26.505Z,11.57
2023-03-03T11:33:05.896Z,13.53
2023-03-03T11:35:38.173Z,12.93
2023-03-03T11:38:05.510Z,13.90
2023-03-03T11:40:51.648Z,14.97
2023-03-03T11:43:37.340Z,15.47
2023-03-03T11:46:09.822Z,14.47
2023-03-03T11:48:40.743Z,15.00
2023-03-03T11:51:12.485Z,12.10
2023-03-03T11:53:58.567Z,12.83
2023-03-03T11:56:31.046Z,11.73
2023-03-03T11:59:01.013Z,13.10
2023-03-03T12:01:40.171Z,13.73
2023-03-03T12:04:10.373Z,11.87
2023-03-03T12:06:43.855Z,11.57
2023-03-03T12:09:12.445Z,11.07
2023-03-03T12:11:46.373Z,11.87
2023-03-03T12:14:26.515Z,13.17
2023-03-03T12:16:59.368Z,12.43
2023-03-03T12:19:45.023Z,13.67
2023-03-03T12:22:31.152Z,14.00
2023-03-03T12:25:04.833Z,12.50
2023-03-03T12:27:40.130Z,12.23
2023-03-03T12:30:14.590Z,16.17
2023-03-03T12:32:47.971Z,14.20
2023-03-03T12:35:25.246Z,13.07
2023-03-03T12:37:58.951Z,12.30
2023-03-03T12:40:30.832Z,10.17
2023-03-03T12:43:05.819Z,10.20
2023-03-03T12:45:33.046Z,9.13
2023-03-03T12:48:10.526Z,10.37
2023-03-03T12:50:55.837Z,9.47
2023-03-03T12:53:33.218Z,9.77
2023-03-03T12:56:00.480Z,8.50
2023-03-03T12:58:47.056Z,8.40
2023-03-03T13:01:32.881Z,9.20
2023-03-03T13:04:05.883Z,8.43
2023-03-03T13:06:37.092Z,8.67
2023-03-03T13:09:33.667Z,8.53
2023-03-03T13:12:10.157Z,8.40
2023-03-03T13:14:43.233Z,9.10
2023-03-03T13:17:11.739Z,9.20
2023-03-03T13:19:42.217Z,8.27
2023-03-03T13:22:23.340Z,7.50
2023-03-03T13:25:00.191Z,8.10
2023-03-03T13:27:32.427Z,7.27
2023-03-03T13:30:04.499Z,7.10
2023-03-03T13:32:41.693Z,8.30
2023-03-03T13:35:17.535Z,8.53
2023-03-03T13:37:50.209Z,8.13
2023-03-03T13:40:18.813Z,7.87
2023-03-03T13:42:45.997Z,9.53
2023-03-03T13:45:25.035Z,8.87
2023-03-03T13:47:52.264Z,8.70
2023-03-03T13:50:49.253Z,8.10
2023-03-03T13:53:34.994Z,8.43
2023-03-03T13:56:18.078Z,8.33
2023-03-03T13:58:51.683Z,8.43
2023-03-03T14:01:23.503Z,7.33
2023-03-03T14:03:56.308Z,8.87
2023-03-03T14:06:24.927Z,9.30
2023-03-03T14:08:52.116Z,8.90
2023-03-03T14:11:28.470Z,8.83
2023-03-03T14:13:55.633Z,9.10
2023-03-03T14:16:35.292Z,8.40
2023-03-03T14:19:17.402Z,8.73
2023-03-03T14:21:44.607Z,9.20
2023-03-03T14:24:19.547Z,8.17
2023-03-03T14:26:47.874Z,8.40
2023-03-03T14:29:27.234Z,8.07
2023-03-03T14:32:06.204Z,9.60
2023-03-03T14:34:43.744Z,8.60
2023-03-03T14:37:40.614Z,8.23
2023-03-03T14:40:16.399Z,8.87
2023-03-03T14:42:49.068Z,10.47
2023-03-03T14:45:39.704Z,10.17
2023-03-03T14:48:12.358Z,10.50
2023-03-03T14:50:41.712Z,10.50
2023-03-03T14:53:16.654Z,10.20
2023-03-03T14:55:45.285Z,8.90
2023-03-03T14:58:35.894Z,9.23
2023-03-03T15:01:13.149Z,9.50
2023-03-03T15:03:45.880Z,9.37
2023-03-03T15:06:13.395Z,8.57
2023-03-03T15:08:41.852Z,8.90
2023-03-03T15:11:19.126Z,9.03
2023-03-03T15:13:46.724Z,8.57
2023-03-03T15:16:22.919Z,9.70
2023-03-03T15:19:11.745Z,9.53
2023-03-03T15:21:41.467Z,10.83
2023-03-03T15:24:29.337Z,10.30
2023-03-03T15:27:09.392Z,9.80
2023-03-03T15:29:50.916Z,8.80
2023-03-03T15:32:34.873Z,8.70
2023-03-03T15:35:26.451Z,7.93
2023-03-03T15:38:03.948Z,9.00
2023-03-03T15:40:38.139Z,8.57
2023-03-03T15:43:23.733Z,9.10
2023-03-03T15:45:55.042Z,8.90
2023-03-03T15:48:40.741Z,8.80
2023-03-03T15:51:11.140Z,9.37
2023-03-03T15:53:38.785Z,9.23
2023-03-03T15:56:18.341Z,9.97
2023-03-03T15:58:55.014Z,10.70
2023-03-03T16:01:28.855Z,12.17
2023-03-03T16:04:07.676Z,11.23
2023-03-03T16:06:38.664Z,9.87
2023-03-03T16:09:17.290Z,10.43
2023-03-03T16:11:47.740Z,10.50
2023-03-03T16:14:30.268Z,12.17
2023-03-03T16:17:03.774Z,10.60
2023-03-03T16:19:49.851Z,10.90
2023-03-03T16:22:42.308Z,11.87
2023-03-03T16:25:32.558Z,11.00
2023-03-03T16:28:08.104Z,9.73
2023-03-03T16:30:50.019Z,9.07
2023-03-03T16:33:23.251Z,9.67
2023-03-03T16:35:59.394Z,9.80
2023-03-03T16:38:26.799Z,9.60
2023-03-03T16:41:05.692Z,8.87
2023-03-03T16:43:44.691Z,8.93
2023-03-03T16:46:21.241Z,8.67
2023-03-03T16:48:59.825Z,8.67
2023-03-03T16:51:42.478Z,7.90
2023-03-03T16:54:12.386Z,8.50
2023-03-03T16:57:00.663Z,8.63
2023-03-03T16:59:36.583Z,9.50
2023-03-03T17:02:25.910Z,9.20
2023-03-03T17:05:08.010Z,10.53
2023-03-03T17:07:37.940Z,11.60
2023-03-03T17:10:37.601Z,10.70
2023-03-03T17:13:17.023Z,11.57
2023-03-03T17:15:44.382Z,12.10
2023-03-03T17:18:14.282Z,11.30
2023-03-03T17:20:44.891Z,11.90
2023-03-03T17:23:18.443Z,11.13
2023-03-03T17:26:05.939Z,12.90
2023-03-03T17:28:36.390Z,19.17
2023-03-03T17:31:12.749Z,29.17
2023-03-03T17:33:46.043Z,19.43
2023-03-03T17:36:33.508Z,13.17
2023-03-03T17:39:19.560Z,15.97
2023-03-03T17:42:01.041Z,15.67
2023-03-03T17:44:28.369Z,15.03
2023-03-03T17:47:10.514Z,15.50
2023-03-03T17:49:47.417Z,14.83
2023-03-03T17:52:23.011Z,14.97
2023-03-03T17:54:50.965Z,14.20
2023-03-03T17:57:37.686Z,14.17
2023-03-03T18:00:19.282Z,13.77
2023-03-03T18:02:46.864Z,15.00
2023-03-03T18:05:33.146Z,15.17
2023-03-03T18:08:37.508Z,16.10
2023-03-03T18:11:25.720Z,16.07
2023-03-03T18:13:53.302Z,17.10
2023-03-03T18:16:39.459Z,20.03
2023-03-03T18:19:07.120Z,18.97
2023-03-03T18:21:49.972Z,18.23
2023-03-03T18:24:29.646Z,18.63
2023-03-03T18:27:13.593Z,17.23
2023-03-03T18:29:41.544Z,17.67
2023-03-03T18:32:29.149Z,16.93
2023-03-03T18:35:16.475Z,19.03
2023-03-03T18:37:45.211Z,15.50
2023-03-03T18:40:19.476Z,15.47
2023-03-03T18:42:49.978Z,17.23
2023-03-03T18:45:20.418Z,17.07
2023-03-03T18:48:08.663Z,16.70
2023-03-03T18:50:37.304Z,17.10
2023-03-03T18:53:27.743Z,17.50
2023-03-03T18:56:02.289Z,16.53
2023-03-03T18:58:29.869Z,16.30
2023-03-03T19:00:59.987Z,17.40
2023-03-03T19:03:29.694Z,16.80
2023-03-03T19:06:01.074Z,15.40
2023-03-03T19:08:30.630Z,16.73
2023-03-03T19:11:02.110Z,18.83
2023-03-03T19:13:35.964Z,19.63
2023-03-03T19:16:04.166Z,17.63
2023-03-03T19:18:51.568Z,17.50
2023-03-03T19:21:22.065Z,18.67
2023-03-03T19:24:00.755Z,18.30
2023-03-03T19:26:29.468Z,18.00
2023-03-03T19:28:59.469Z,19.30
2023-03-03T19:31:29.448Z,21.20
2023-03-03T19:34:01.594Z,17.90
2023-03-03T19:36:28.920Z,22.23
2023-03-03T19:39:05.426Z,23.60
2023-03-03T19:41:42.251Z,20.27
2023-03-03T19:44:21.438Z,20.93
2023-03-03T19:46:48.672Z,21.67
2023-03-03T19:49:22.354Z,21.20
2023-03-03T19:52:31.559Z,22.67
2023-03-03T19:55:21.170Z,21.53
2023-03-03T19:57:54.509Z,22.00
2023-03-03T20:00:31.452Z,21.93
2023-03-03T20:03:13.208Z,23.40
2023-03-03T20:09:05.178Z,21.73
2023-03-03T20:11:48.103Z,23.40
2023-03-03T20:14:36.364Z,21.33
2023-03-03T20:17:22.950Z,19.63
2023-03-03T20:19:53.488Z,19.17
2023-03-03T20:22:37.472Z,20.97
2023-03-03T20:25:20.697Z,20.03
2023-03-03T20:27:55.754Z,20.03
2023-03-03T20:30:32.961Z,21.57
2023-03-03T20:33:00.328Z,18.20
2023-03-03T20:35:38.597Z,20.93
2023-03-03T20:38:30.799Z,21.57
2023-03-03T20:40:58.144Z,19.13
2023-03-03T20:43:40.929Z,18.17
2023-03-03T20:46:16.073Z,18.13
2023-03-03T20:49:06.765Z,18.57
2023-03-03T20:51:54.524Z,20.03
2023-03-03T20:54:33.138Z,18.57
2023-03-03T20:57:00.422Z,18.67
2023-03-03T20:59:34.659Z,20.97
2023-03-03T21:02:02.450Z,18.47
2023-03-03T21:04:31.604Z,15.70
2023-03-03T21:07:09.266Z,17.63
2023-03-03T21:09:38.945Z,18.70
2023-03-03T21:12:26.133Z,20.40
2023-03-03T21:15:03.659Z,18.70
2023-03-03T21:17:31.388Z,19.93
2023-03-03T21:20:18.570Z,18.30
2023-03-03T21:22:45.870Z,18.70
2023-03-03T21:25:33.039Z,19.93
2023-03-03T21:28:19.164Z,18.67
2023-03-03T21:31:05.146Z,19.80
2023-03-03T21:33:47.725Z,19.37
2023-03-03T21:36:16.802Z,18.60
2023-03-03T21:38:46.370Z,18.67
2023-03-03T21:41:15.456Z,20.80
2023-03-03T21:43:44.384Z,19.17
2023-03-03T21:46:12.768Z,17.80
2023-03-03T21:48:43.757Z,18.63
2023-03-03T21:51:14.163Z,18.10
2023-03-03T21:53:45.298Z,17.60
2023-03-03T21:56:16.048Z,17.73
2023-03-03T21:58:43.382Z,18.40
2023-03-03T22:01:10.952Z,17.87
2023-03-03T22:03:38.590Z,19.70
2023-03-03T22:06:06.097Z,20.23
2023-03-03T22:08:33.440Z,17.73
2023-03-03T22:11:01.009Z,19.77
2023-03-03T22:13:28.415Z,17.87
2023-03-03T22:15:55.828Z,17.23
2023-03-03T22:18:23.249Z,16.23
2023-03-03T22:20:50.790Z,18.97
2023-03-03T22:23:21.419Z,17.90
2023-03-03T22:25:48.687Z,18.30
2023-03-03T22:28:15.909Z,19.10
2023-03-03T22:30:43.143Z,18.43
2023-03-03T22:33:10.375Z,17.90
2023-03-03T22:35:37.702Z,17.17
2023-03-03T22:38:05.162Z,16.80
2023-03-03T22:40:33.559Z,18.03
2023-03-03T22:43:01.096Z,17.17
2023-03-03T22:45:28.304Z,16.63
2023-03-03T22:47:55.474Z,17.10
2023-03-03T22:50:22.733Z,16.67
2023-03-03T22:52:49.985Z,16.53
2023-03-03T22:55:17.350Z,17.37
2023-03-03T22:57:44.606Z,16.93
2023-03-03T23:00:12.241Z,16.03
2023-03-03T23:02:40.021Z,15.37
2023-03-03T23:05:11.116Z,16.13
2023-03-03T23:07:39.890Z,15.50
2023-03-03T23:10:07.803Z,18.43
2023-03-03T23:12:35.100Z,21.93
2023-03-03T23:15:02.303Z,19.87
2023-03-03T23:17:29.461Z,15.90
2023-03-03T23:19:56.669Z,16.60
2023-03-03T23:22:23.884Z,14.47
2023-03-03T23:24:51.419Z,14.83
2023-03-03T23:27:18.836Z,14.13
2023-03-03T23:29:46.032Z,15.10
2023-03-03T23:32:13.402Z,13.53
2023-03-03T23:34:40.715Z,14.87
2023-03-03T23:37:08.015Z,14.50
2023-03-03T23:39:35.822Z,14.37
2023-03-03T23:42:03.034Z,15.03
2023-03-03T23:44:30.228Z,13.87
2023-03-03T23:46:57.533Z,13.43
2023-03-03T23:49:24.736Z,15.07
2023-03-03T23:51:52.048Z,15.27
2023-03-03T23:54:19.248Z,14.40
2023-03-03T23:56:46.679Z,13.67
2023-03-03T23:59:13.913Z,14.73
